Time;durP1;ratioP1;P1;durP2;ratioP2;P2;SDS_P1;SDS_P2;PMS_P1;PMS_P2;Temp;Humidity;BMP_temperature;BMP_pressure;BME280_temperature;BME280_humidity;BME280_pressure;Samples;Min_cycle;Max_cycle;Signal;HPM_P1;HPM_P2
2023/01/31 00:01:14;;;;;;;19.55;3.80;;;4.50;99.90;;;;;;5075278;28;20040;-83
2023/01/31 00:03:42;;;;;;;21.75;4.15;;;4.50;99.90;;;;;;5093379;28;20040;-83
2023/01/31 00:06:23;;;;;;;22.58;3.08;;;4.60;99.90;;;;;;5075982;28;20048;-83
2023/01/31 00:08:50;;;;;;;19.85;3.45;;;4.50;99.90;;;;;;5093106;28;20040;-83
2023/01/31 00:11:17;;;;;;;25.70;4.28;;;4.40;99.90;;;;;;5074508;28;20079;-84
2023/01/31 00:13:43;;;;;;;18.70;3.13;;;4.30;99.90;;;;;;5092842;28;20044;-82
2023/01/31 00:16:11;;;;;;;17.35;3.72;;;4.40;99.90;;;;;;5094169;28;20032;-83
2023/01/31 00:18:38;;;;;;;21.42;3.80;;;4.70;99.90;;;;;;5059286;28;20036;-83
2023/01/31 00:21:10;;;;;;;21.75;4.05;;;4.60;99.90;;;;;;5076274;28;20044;-83
2023/01/31 00:23:37;;;;;;;23.05;3.85;;;4.10;99.90;;;;;;5091599;28;20480;-83
2023/01/31 00:26:11;;;;;;;22.23;4.22;;;4.00;99.90;;;;;;5074320;28;20046;-83
2023/01/31 00:28:37;;;;;;;18.15;3.35;;;4.00;99.90;;;;;;5091171;28;20044;-83
2023/01/31 00:31:03;;;;;;;21.88;3.83;;;4.90;99.90;;;;;;5087785;28;20058;-83
2023/01/31 00:33:28;;;;;;;16.08;3.47;;;4.00;99.90;;;;;;5073690;28;20134;-83
2023/01/31 00:35:54;;;;;;;20.75;3.70;;;4.80;99.90;;;;;;5072916;28;20047;-83
2023/01/31 00:38:20;;;;;;;20.17;4.05;;;4.00;99.90;;;;;;5074136;28;20040;-82
2023/01/31 00:40:52;;;;;;;21.13;3.97;;;4.00;99.90;;;;;;5074068;28;20073;-83
2023/01/31 00:43:18;;;;;;;17.38;3.70;;;5.10;99.90;;;;;;5074312;28;20096;-83
2023/01/31 00:45:44;;;;;;;21.13;3.70;;;4.00;99.90;;;;;;5107932;28;20047;-83
2023/01/31 00:48:10;;;;;;;23.02;3.55;;;4.30;99.90;;;;;;5097467;28;20078;-83
2023/01/31 00:50:35;;;;;;;23.70;3.92;;;4.10;99.90;;;;;;5090588;28;20413;-83
2023/01/31 00:53:01;;;;;;;24.33;4.20;;;4.10;99.90;;;;;;5072998;28;20036;-83
2023/01/31 00:55:27;;;;;;;23.13;3.80;;;4.80;99.90;;;;;;5090463;28;20289;-83
2023/01/31 00:57:53;;;;;;;20.70;3.70;;;4.50;99.90;;;;;;5074050;28;20351;-83
2023/01/31 01:00:19;;;;;;;21.15;3.38;;;4.70;99.90;;;;;;5056198;28;20118;-82
2023/01/31 01:02:45;;;;;;;19.92;3.72;;;4.10;99.90;;;;;;5090514;28;20101;-82
2023/01/31 01:05:10;;;;;;;17.83;3.10;;;4.40;99.90;;;;;;5103040;28;20036;-83
2023/01/31 01:07:36;;;;;;;14.75;3.25;;;4.10;99.90;;;;;;5070480;28;20131;-83
2023/01/31 01:10:02;;;;;;;23.67;3.58;;;5.60;99.90;;;;;;5080832;28;20131;-83
2023/01/31 01:12:28;;;;;;;25.40;4.18;;;5.50;99.90;;;;;;5090804;28;20036;-83
2023/01/31 01:14:54;;;;;;;18.00;3.60;;;4.10;99.90;;;;;;5088826;28;20535;-83
2023/01/31 01:17:19;;;;;;;22.48;3.55;;;4.10;99.90;;;;;;5073513;28;20046;-83
2023/01/31 01:19:45;;;;;;;21.55;3.47;;;4.00;99.90;;;;;;5090254;28;20051;-83
2023/01/31 01:22:14;;;;;;;18.45;3.72;;;5.00;99.90;;;;;;5073586;28;20269;-83
2023/01/31 01:24:42;;;;;;;23.48;3.88;;;4.10;99.90;;;;;;5090315;28;20197;-83
2023/01/31 01:27:08;;;;;;;27.45;4.07;;;3.80;99.90;;;;;;5088732;28;20048;-83
2023/01/31 01:29:34;;;;;;;22.75;4.05;;;3.80;99.90;;;;;;5079355;28;20040;-83
2023/01/31 01:32:00;;;;;;;21.27;3.20;;;3.70;99.90;;;;;;5073824;28;20415;-83
2023/01/31 01:34:26;;;;;;;19.65;3.22;;;3.70;99.90;;;;;;5053346;28;20032;-83
2023/01/31 01:36:52;;;;;;;19.13;3.58;;;3.70;99.90;;;;;;5050273;28;20032;-83
2023/01/31 01:39:17;;;;;;;20.25;3.63;;;3.60;99.90;;;;;;5095473;28;20513;-83
2023/01/31 01:41:44;;;;;;;22.17;4.15;;;4.10;99.90;;;;;;5089977;28;20047;-83
2023/01/31 01:44:43;;;;;;;19.50;3.70;;;3.70;99.90;;;;;;5089730;28;20119;-82
2023/01/31 01:47:34;;;;;;;24.30;3.83;;;3.60;99.90;;;;;;5072330;28;20048;-83
2023/01/31 01:50:07;;;;;;;17.38;3.42;;;3.80;99.90;;;;;;5076139;28;20044;-83
2023/01/31 01:52:38;;;;;;;18.95;3.85;;;3.50;99.90;;;;;;5087399;28;20084;-83
2023/01/31 01:55:27;;;;;;;20.85;3.90;;;4.40;99.90;;;;;;5069718;28;20405;-83
2023/01/31 01:58:15;;;;;;;17.65;3.05;;;3.60;99.90;;;;;;5103361;28;20067;-82
2023/01/31 02:00:41;;;;;;;19.35;3.05;;;4.50;99.90;;;;;;5070208;28;20186;-83
2023/01/31 02:03:07;;;;;;;19.10;3.13;;;3.50;99.90;;;;;;5070538;28;20039;-82
2023/01/31 02:05:42;;;;;;;20.83;3.17;;;3.50;99.90;;;;;;5089334;28;20055;-83
2023/01/31 02:08:09;;;;;;;20.02;3.13;;;3.60;99.90;;;;;;5072568;28;20092;-83
2023/01/31 02:11:10;;;;;;;18.15;3.28;;;3.60;99.90;;;;;;5072430;28;20055;-82
2023/01/31 02:13:39;;;;;;;13.40;3.00;;;3.60;99.90;;;;;;5075220;28;20040;-83
2023/01/31 02:16:05;;;;;;;21.48;3.20;;;4.70;99.90;;;;;;5071696;28;20051;-82
2023/01/31 02:18:31;;;;;;;16.80;2.95;;;3.70;99.90;;;;;;5067118;28;20028;-83
2023/01/31 02:21:18;;;;;;;17.40;3.28;;;3.60;99.90;;;;;;5088466;28;20044;-83
2023/01/31 02:24:21;;;;;;;20.17;3.22;;;3.70;99.90;;;;;;5088541;28;20108;-83
2023/01/31 02:26:53;;;;;;;21.10;3.80;;;3.70;99.90;;;;;;5071146;28;20098;-82
2023/01/31 02:29:40;;;;;;;20.48;3.35;;;3.70;99.90;;;;;;5069890;28;20131;-83
2023/01/31 02:32:51;;;;;;;23.17;3.15;;;3.80;99.90;;;;;;5088487;28;20054;-83
2023/01/31 02:35:39;;;;;;;19.52;3.45;;;3.80;99.90;;;;;;5083784;28;20048;-82
2023/01/31 02:38:09;;;;;;;18.88;2.90;;;3.80;99.90;;;;;;5084366;28;20040;-83
2023/01/31 02:40:44;;;;;;;21.27;3.33;;;4.00;99.90;;;;;;5088102;28;20051;-82
2023/01/31 02:44:57;;;;;;;19.10;2.90;;;3.90;99.90;;;;;;5092620;28;20032;-83
2023/01/31 02:46:44;;;;;;;18.02;3.17;;;3.90;99.90;;;;;;5078766;28;20040;-83
2023/01/31 02:49:34;;;;;;;21.30;3.55;;;3.90;99.90;;;;;;5069972;28;20104;-83
2023/01/31 02:52:15;;;;;;;17.35;3.35;;;3.90;99.90;;;;;;5068856;28;20074;-83
2023/01/31 02:57:28;;;;;;;17.30;3.83;;;4.30;99.90;;;;;;5087503;28;20044;-83
2023/01/31 02:59:55;;;;;;;20.10;3.30;;;4.30;99.90;;;;;;5068148;28;20045;-83
2023/01/31 03:02:23;;;;;;;16.00;2.97;;;4.10;99.90;;;;;;5070049;28;20070;-83
2023/01/31 03:04:49;;;;;;;20.35;3.33;;;4.10;99.90;;;;;;5087564;28;20136;-83
2023/01/31 03:07:25;;;;;;;13.40;2.90;;;4.10;99.90;;;;;;5069486;28;20087;-83
2023/01/31 03:10:27;;;;;;;17.77;3.00;;;4.10;99.90;;;;;;5087193;28;20040;-83
2023/01/31 03:13:05;;;;;;;23.42;3.40;;;4.10;99.90;;;;;;5048105;28;20503;-83
2023/01/31 03:19:16;;;;;;;16.83;3.15;;;4.20;99.90;;;;;;5086532;28;20044;-83
2023/01/31 03:21:47;;;;;;;15.93;2.70;;;4.20;99.90;;;;;;5086375;28;20538;-83
2023/01/31 03:24:16;;;;;;;19.45;3.42;;;5.70;99.90;;;;;;5077725;28;20032;-83
2023/01/31 03:26:42;;;;;;;12.10;2.83;;;5.20;99.90;;;;;;5070425;28;20074;-83
2023/01/31 03:29:12;;;;;;;18.05;3.13;;;4.40;99.90;;;;;;5071397;28;20036;-83
2023/01/31 03:31:48;;;;;;;16.65;3.22;;;4.30;99.90;;;;;;5088098;28;20040;-83
2023/01/31 03:34:16;;;;;;;13.30;3.25;;;4.30;99.90;;;;;;5088363;28;20417;-83
2023/01/31 03:37:02;;;;;;;16.30;2.60;;;4.30;99.90;;;;;;5088108;28;20040;-83
2023/01/31 03:39:41;;;;;;;19.52;3.70;;;4.30;99.90;;;;;;5088016;28;20454;-82
2023/01/31 03:42:14;;;;;;;16.13;2.75;;;4.30;99.90;;;;;;5071560;28;20044;-83
2023/01/31 03:44:55;;;;;;;14.55;3.00;;;4.30;99.90;;;;;;5071318;28;20039;-83
2023/01/31 03:47:28;;;;;;;14.75;2.80;;;4.30;99.90;;;;;;5071296;28;20039;-83
2023/01/31 03:49:57;;;;;;;15.45;2.88;;;4.30;99.90;;;;;;5100333;28;20398;-83
2023/01/31 03:52:34;;;;;;;14.80;2.80;;;4.30;99.90;;;;;;5088049;28;20078;-83
2023/01/31 03:55:10;;;;;;;17.00;3.35;;;4.30;99.90;;;;;;5087602;28;20040;-83
2023/01/31 03:57:39;;;;;;;18.58;3.17;;;4.30;99.90;;;;;;5087956;28;20036;-83
2023/01/31 04:00:12;;;;;;;17.80;3.63;;;4.20;99.90;;;;;;5071155;28;20043;-84
2023/01/31 04:02:38;;;;;;;;;;;4.30;99.90;;;;;;5087373;28;20052;-83
2023/01/31 04:05:08;;;;;;;18.33;3.40;;;4.30;99.90;;;;;;5071200;28;19923;-83
2023/01/31 04:07:35;;;;;;;18.35;3.33;;;4.30;99.90;;;;;;5088065;28;20053;-83
2023/01/31 04:10:04;;;;;;;16.20;2.95;;;4.70;99.90;;;;;;5070968;28;20054;-83
2023/01/31 04:12:34;;;;;;;16.38;3.20;;;4.40;99.90;;;;;;5071016;28;20133;-83
2023/01/31 04:15:00;;;;;;;16.35;2.83;;;4.40;99.90;;;;;;5086657;28;20040;-83
2023/01/31 04:17:26;;;;;;;19.35;3.38;;;4.70;99.90;;;;;;5071080;28;20619;-83
2023/01/31 04:19:51;;;;;;;21.55;4.13;;;4.40;99.90;;;;;;5104513;28;20048;-83
2023/01/31 04:22:17;;;;;;;18.17;3.25;;;4.50;99.90;;;;;;5085905;28;20048;-83
2023/01/31 04:24:43;;;;;;;14.80;3.05;;;4.50;99.90;;;;;;5065367;28;20055;-83
2023/01/31 04:27:09;;;;;;;15.18;3.45;;;4.70;99.90;;;;;;5068274;28;20032;-83
2023/01/31 04:29:34;;;;;;;19.75;4.10;;;4.50;99.90;;;;;;5072591;28;20097;-82
2023/01/31 04:32:00;;;;;;;19.63;3.40;;;4.50;99.90;;;;;;5090478;28;20301;-83
2023/01/31 04:34:26;;;;;;;21.60;3.28;;;4.60;99.90;;;;;;5053852;28;20105;-83
2023/01/31 04:36:51;;;;;;;19.30;3.47;;;4.90;99.90;;;;;;5073048;28;20043;-82
2023/01/31 04:39:17;;;;;;;24.48;3.70;;;4.80;99.90;;;;;;5083355;28;20505;-83
2023/01/31 04:41:43;;;;;;;20.40;3.95;;;5.00;99.90;;;;;;5090614;28;20038;-83
2023/01/31 04:44:09;;;;;;;17.98;3.58;;;4.90;99.90;;;;;;5090493;28;20067;-83
2023/01/31 04:46:34;;;;;;;17.65;3.55;;;4.70;99.90;;;;;;5091246;28;20035;-83
2023/01/31 04:49:00;;;;;;;17.73;3.25;;;4.80;99.90;;;;;;5107984;28;20064;-83
2023/01/31 04:51:26;;;;;;;18.13;3.33;;;4.80;99.90;;;;;;5074031;28;20050;-83
2023/01/31 04:53:51;;;;;;;20.83;3.83;;;5.40;99.90;;;;;;5056640;28;20066;-83
2023/01/31 04:56:17;;;;;;;23.08;3.78;;;5.00;99.90;;;;;;5091086;28;20047;-83
2023/01/31 04:58:43;;;;;;;21.80;3.97;;;5.30;99.90;;;;;;5074174;28;20536;-83
2023/01/31 05:01:09;;;;;;;20.73;3.90;;;;;;;;;;5073480;28;20047;-83
2023/01/31 05:03:35;;;;;;;17.42;3.72;;;5.00;99.90;;;;;;5073775;28;20519;-83
2023/01/31 05:06:00;;;;;;;24.38;4.28;;;5.00;99.90;;;;;;5072920;28;20048;-83
2023/01/31 05:08:26;;;;;;;20.10;3.80;;;5.00;99.90;;;;;;5073847;28;20107;-83
2023/01/31 05:11:00;;;;;;;21.10;4.05;;;5.00;99.90;;;;;;5073515;28;20580;-83
2023/01/31 05:13:26;;;;;;;20.75;3.75;;;5.30;99.90;;;;;;5091085;28;20036;-83
2023/01/31 05:15:52;;;;;;;21.23;4.55;;;5.10;99.90;;;;;;5089311;28;20071;-83
2023/01/31 05:18:18;;;;;;;26.35;3.95;;;5.10;99.90;;;;;;5073661;28;20040;-82
2023/01/31 05:20:44;;;;;;;20.85;4.60;;;5.10;99.90;;;;;;5073795;28;20073;-83
2023/01/31 05:23:10;;;;;;;21.23;4.40;;;5.40;99.90;;;;;;5090580;28;20039;-83
2023/01/31 05:25:36;;;;;;;24.23;4.53;;;5.10;99.90;;;;;;5091748;28;20056;-83
2023/01/31 05:28:03;;;;;;;22.75;4.25;;;5.10;99.90;;;;;;5089076;28;20032;-83
2023/01/31 05:30:29;;;;;;;20.52;4.57;;;5.20;99.90;;;;;;5090170;28;20090;-83
2023/01/31 05:32:55;;;;;;;20.98;5.13;;;5.10;99.90;;;;;;5073277;28;20036;-83
2023/01/31 05:35:21;;;;;;;25.73;4.20;;;5.50;99.90;;;;;;5089568;28;20375;-83
2023/01/31 05:37:46;;;;;;;26.83;5.38;;;5.20;99.90;;;;;;5084680;28;20036;-83
2023/01/31 05:40:15;;;;;;;23.08;4.32;;;5.20;99.90;;;;;;5086587;28;20486;-83
2023/01/31 05:42:41;;;;;;;20.27;4.85;;;5.20;99.90;;;;;;5071188;28;20047;-83
2023/01/31 05:45:09;;;;;;;22.90;4.53;;;5.30;99.90;;;;;;5070053;28;20199;-83
2023/01/31 05:47:34;;;;;;;23.15;5.32;;;5.30;99.90;;;;;;5084443;28;20106;-84
2023/01/31 05:50:00;;;;;;;21.00;4.22;;;5.30;99.90;;;;;;5068247;28;20064;-84
2023/01/31 05:52:26;;;;;;;24.90;5.00;;;5.40;99.90;;;;;;5089308;28;20047;-83
2023/01/31 05:54:52;;;;;;;21.60;4.50;;;5.40;99.90;;;;;;5077406;28;20040;-84
2023/01/31 05:57:18;;;;;;;23.42;4.07;;;5.50;99.90;;;;;;5084793;28;20047;-83
2023/01/31 05:59:44;;;;;;;20.73;4.68;;;5.50;99.90;;;;;;5054945;28;20129;-83
2023/01/31 06:02:12;;;;;;;23.83;5.03;;;5.50;99.90;;;;;;5073426;28;20473;-83
2023/01/31 06:04:38;;;;;;;24.05;4.40;;;5.50;99.90;;;;;;5088513;28;20394;-84
2023/01/31 06:07:03;;;;;;;19.00;4.22;;;6.10;99.90;;;;;;5067104;28;20051;-83
2023/01/31 06:09:29;;;;;;;20.75;4.78;;;5.60;99.90;;;;;;5070757;28;20033;-83
2023/01/31 06:11:55;;;;;;;25.38;4.78;;;5.60;99.90;;;;;;5054381;28;20051;-83
2023/01/31 06:14:21;;;;;;;24.20;4.80;;;5.60;99.90;;;;;;5081990;28;20067;-83
2023/01/31 06:16:47;;;;;;;26.90;4.35;;;5.60;99.90;;;;;;5101491;27;20078;-83
2023/01/31 06:19:12;;;;;;;22.33;4.82;;;5.80;99.90;;;;;;5056555;28;20040;-83
2023/01/31 06:21:38;;;;;;;19.38;4.43;;;5.70;99.90;;;;;;5086348;28;20028;-83
2023/01/31 06:24:04;;;;;;;23.10;5.40;;;5.70;99.90;;;;;;5051724;28;20040;-83
2023/01/31 06:26:30;;;;;;;23.35;5.30;;;5.70;99.90;;;;;;5054932;28;20038;-83
2023/01/31 06:28:55;;;;;;;19.63;4.43;;;5.70;99.90;;;;;;5072026;28;20040;-83
2023/01/31 06:31:21;;;;;;;23.00;4.85;;;5.70;99.90;;;;;;5071064;28;20097;-83
2023/01/31 06:33:47;;;;;;;26.13;4.75;;;5.80;99.90;;;;;;5067304;28;20054;-84
2023/01/31 06:36:13;;;;;;;23.27;4.13;;;6.10;99.90;;;;;;5072471;28;20079;-84
2023/01/31 06:38:39;;;;;;;21.15;4.88;;;5.80;99.90;;;;;;5069590;28;20047;-83
2023/01/31 06:41:04;;;;;;;18.45;4.65;;;5.80;99.90;;;;;;5084700;28;20044;-83
2023/01/31 06:43:30;;;;;;;20.38;4.35;;;5.90;99.90;;;;;;5088227;28;20485;-83
2023/01/31 06:45:56;;;;;;;19.75;4.57;;;5.80;99.90;;;;;;5089502;28;20044;-83
2023/01/31 06:48:21;;;;;;;20.90;4.20;;;5.80;99.90;;;;;;5089418;28;20540;-83
2023/01/31 06:50:47;;;;;;;24.52;4.40;;;6.10;99.90;;;;;;5070933;28;20121;-83
2023/01/31 06:53:13;;;;;;;22.17;4.55;;;5.80;99.90;;;;;;5087571;28;20039;-83
2023/01/31 06:55:38;;;;;;;21.70;4.63;;;5.80;99.90;;;;;;5072501;28;20036;-83
2023/01/31 06:58:04;;;;;;;25.98;4.93;;;5.80;99.90;;;;;;5072247;28;20040;-83
2023/01/31 07:00:30;;;;;;;20.67;4.82;;;5.80;99.90;;;;;;5072098;28;20139;-83
2023/01/31 07:02:56;;;;;;;20.70;4.65;;;5.80;99.90;;;;;;5055033;28;20059;-83
2023/01/31 07:05:22;;;;;;;21.17;4.32;;;5.80;99.90;;;;;;5106257;28;20063;-83
2023/01/31 07:07:48;;;;;;;19.25;4.40;;;5.80;99.90;;;;;;5089288;28;20466;-83
2023/01/31 07:10:15;;;;;;;19.27;4.13;;;6.00;99.90;;;;;;5071817;28;20111;-84
2023/01/31 07:12:42;;;;;;;21.35;4.50;;;5.80;99.90;;;;;;5066816;28;20053;-84
2023/01/31 07:15:09;;;;;;;23.55;5.03;;;5.80;99.90;;;;;;5082095;28;20105;-83
2023/01/31 07:17:35;;;;;;;24.90;4.20;;;5.80;99.90;;;;;;5071814;28;20065;-83
2023/01/31 07:20:01;;;;;;;18.73;3.85;;;5.80;99.90;;;;;;5088767;28;20044;-83
2023/01/31 07:22:27;;;;;;;22.13;4.80;;;5.80;99.90;;;;;;5087614;28;20043;-83
2023/01/31 07:24:53;;;;;;;23.15;4.63;;;5.80;99.90;;;;;;5072067;28;20040;-83
2023/01/31 07:27:19;;;;;;;23.60;4.18;;;5.80;99.90;;;;;;5102557;28;20489;-83
2023/01/31 07:29:44;;;;;;;20.48;4.43;;;5.90;99.90;;;;;;5079293;28;20464;-83
2023/01/31 07:32:10;;;;;;;23.13;4.47;;;6.00;99.90;;;;;;5071767;28;20517;-83
2023/01/31 07:34:36;;;;;;;18.55;3.97;;;5.80;99.90;;;;;;5088490;28;20028;-84
2023/01/31 07:37:02;;;;;;;26.60;4.28;;;5.90;99.90;;;;;;5070485;28;20123;-83
2023/01/31 07:39:28;;;;;;;20.15;3.85;;;5.90;99.90;;;;;;5088328;28;20044;-83
2023/01/31 07:41:54;;;;;;;22.67;4.97;;;5.90;99.90;;;;;;5088491;28;20561;-83
2023/01/31 07:44:20;;;;;;;17.33;4.20;;;6.10;99.90;;;;;;5087448;28;20166;-83
2023/01/31 07:46:47;;;;;;;18.40;3.67;;;5.90;99.90;;;;;;5071460;28;20127;-82
2023/01/31 07:49:13;;;;;;;21.65;4.07;;;5.90;99.90;;;;;;5087785;28;20455;-83
2023/01/31 07:51:38;;;;;;;17.60;3.53;;;5.90;99.90;;;;;;5071595;28;20040;-83
2023/01/31 07:54:05;;;;;;;13.68;3.65;;;5.90;99.90;;;;;;5088335;28;20036;-84
2023/01/31 07:56:31;;;;;;;20.40;4.78;;;6.00;99.90;;;;;;5071429;28;20083;-83
2023/01/31 07:58:58;;;;;;;23.17;3.65;;;6.00;99.90;;;;;;5086660;28;20036;-84
2023/01/31 08:04:12;;;;;;;20.63;3.95;;;6.00;99.90;;;;;;5091320;28;20044;-83
2023/01/31 08:06:39;;;;;;;20.38;3.85;;;6.20;99.90;;;;;;5075336;28;20105;-83
2023/01/31 08:09:05;;;;;;;18.50;3.33;;;6.00;99.90;;;;;;5090968;28;20032;-84
2023/01/31 08:11:31;;;;;;;15.85;3.53;;;6.00;99.90;;;;;;5074840;28;20520;-83
2023/01/31 08:13:57;;;;;;;21.13;4.40;;;6.00;99.90;;;;;;5091950;28;20044;-83
2023/01/31 08:16:24;;;;;;;18.95;3.15;;;6.00;99.90;;;;;;5091964;28;20091;-83
2023/01/31 08:18:51;;;;;;;22.02;3.72;;;6.00;99.90;;;;;;5074006;28;20047;-83
2023/01/31 08:21:17;;;;;;;22.67;4.38;;;6.10;99.90;;;;;;5092165;28;20501;-83
2023/01/31 08:23:44;;;;;;;16.52;3.60;;;6.10;99.90;;;;;;5074930;28;20044;-83
2023/01/31 08:26:16;;;;;;;14.70;3.13;;;6.30;99.90;;;;;;5074955;28;20405;-83
2023/01/31 08:28:43;;;;;;;20.02;3.33;;;6.10;99.90;;;;;;5091526;28;20595;-84
2023/01/31 08:31:17;;;;;;;15.90;3.28;;;6.10;99.90;;;;;;5090199;28;20048;-83
2023/01/31 08:33:43;;;;;;;12.88;3.20;;;6.20;99.90;;;;;;5091242;28;20106;-83
2023/01/31 08:36:20;;;;;;;14.15;2.92;;;6.20;99.90;;;;;;5074972;28;20358;-83
2023/01/31 08:38:46;;;;;;;19.80;3.33;;;6.20;99.90;;;;;;5074470;28;20047;-83
2023/01/31 08:41:12;;;;;;;15.98;3.03;;;6.20;99.90;;;;;;5088900;28;20059;-83
2023/01/31 08:43:38;;;;;;;17.55;3.22;;;6.20;99.90;;;;;;5091650;28;20157;-83
2023/01/31 08:46:05;;;;;;;18.52;3.55;;;6.30;99.90;;;;;;5074920;28;20071;-83
2023/01/31 08:48:35;;;;;;;15.77;3.42;;;6.60;99.90;;;;;;5091624;28;20627;-83
2023/01/31 08:51:03;;;;;;;15.77;3.90;;;6.30;99.90;;;;;;5089991;28;20127;-83
2023/01/31 08:53:29;;;;;;;16.70;3.72;;;6.30;99.90;;;;;;5091436;28;20468;-83
2023/01/31 08:56:04;;;;;;;17.13;3.50;;;6.00;99.90;;;;;;5091640;28;20024;-82
2023/01/31 08:58:33;;;;;;;16.92;3.53;;;6.40;99.90;;;;;;5091349;28;20114;-83
2023/01/31 09:01:05;;;;;;;15.40;3.42;;;6.40;99.90;;;;;;5071042;28;20036;-83
2023/01/31 09:03:30;;;;;;;14.68;3.10;;;6.50;99.90;;;;;;5074432;28;20124;-83
2023/01/31 09:06:05;;;;;;;16.48;3.38;;;6.50;99.90;;;;;;5106925;28;20590;-82
2023/01/31 09:08:31;;;;;;;16.02;3.55;;;6.50;99.90;;;;;;5074005;28;20177;-83
2023/01/31 09:10:59;;;;;;;18.85;3.35;;;6.50;99.90;;;;;;5073830;28;20056;-82
2023/01/31 09:13:26;;;;;;;21.27;4.05;;;6.80;99.90;;;;;;5073360;28;20048;-82
2023/01/31 09:16:09;;;;;;;19.85;3.80;;;6.60;99.90;;;;;;5090810;28;20505;-82
2023/01/31 09:18:36;;;;;;;20.33;3.55;;;6.60;99.90;;;;;;5074175;28;20040;-83
2023/01/31 09:21:08;;;;;;;23.50;3.88;;;6.60;99.90;;;;;;5054138;28;20059;-82
2023/01/31 09:23:34;;;;;;;21.65;4.72;;;6.90;99.90;;;;;;5087642;28;20462;-82
2023/01/31 09:26:00;;;;;;;19.17;3.92;;;6.60;99.90;;;;;;5073946;28;20139;-83
2023/01/31 09:28:26;;;;;;;18.30;3.92;;;6.60;99.90;;;;;;5107397;28;20036;-82
2023/01/31 09:30:55;;;;;;;23.02;5.10;;;6.60;99.90;;;;;;5091013;28;20036;-83
2023/01/31 09:33:21;;;;;;;18.08;3.83;;;6.70;99.90;;;;;;5089722;28;20043;-82
2023/01/31 09:35:59;;;;;;;17.85;3.38;;;6.70;99.90;;;;;;5090454;28;20520;-83
2023/01/31 09:38:25;;;;;;;15.63;3.22;;;6.70;99.90;;;;;;5090358;28;20068;-83
2023/01/31 09:40:51;;;;;;;19.42;3.25;;;6.70;99.90;;;;;;5073688;28;20545;-83
2023/01/31 09:43:20;;;;;;;16.23;3.97;;;6.70;99.90;;;;;;5089119;28;20040;-82
2023/01/31 09:45:48;;;;;;;13.65;2.90;;;6.80;99.90;;;;;;5089806;28;20147;-82
2023/01/31 09:48:23;;;;;;;19.83;3.00;;;6.80;99.90;;;;;;5073355;28;20040;-82
2023/01/31 09:50:49;;;;;;;20.38;3.50;;;6.80;99.90;;;;;;5073295;28;20040;-82
2023/01/31 09:53:20;;;;;;;16.55;3.50;;;6.90;99.90;;;;;;5089153;28;20118;-82
2023/01/31 09:56:10;;;;;;;18.27;3.75;;;6.80;99.90;;;;;;5089555;28;20040;-82
2023/01/31 09:58:45;;;;;;;14.30;3.35;;;6.80;99.90;;;;;;5072394;28;20051;-82
2023/01/31 10:01:22;;;;;;;15.23;3.92;;;6.80;99.90;;;;;;5090084;28;20040;-82
2023/01/31 10:04:14;;;;;;;16.55;4.05;;;6.90;99.90;;;;;;5089803;28;20074;-83
2023/01/31 10:06:53;;;;;;;17.63;3.55;;;6.90;99.90;;;;;;5088735;28;20059;-83
2023/01/31 10:09:30;;;;;;;21.20;3.75;;;6.90;99.90;;;;;;5089789;28;20119;-82
2023/01/31 10:12:03;;;;;;;15.30;3.63;;;7.00;99.90;;;;;;5089594;28;20088;-83
2023/01/31 10:14:35;;;;;;;24.38;3.63;;;7.00;99.90;;;;;;5088033;28;20040;-82
2023/01/31 10:17:21;;;;;;;17.83;3.65;;;7.00;99.90;;;;;;5088973;28;20040;-83
2023/01/31 10:20:00;;;;;;;23.33;4.40;;;7.00;99.90;;;;;;5089848;28;20236;-83
2023/01/31 10:22:48;;;;;;;16.80;3.22;;;7.00;99.90;;;;;;5089399;28;20047;-82
2023/01/31 10:25:43;;;;;;;16.58;3.40;;;7.00;99.90;;;;;;5070907;28;20042;-83
2023/01/31 10:28:30;;;;;;;21.05;3.97;;;7.00;99.90;;;;;;5088738;28;20554;-82
2023/01/31 10:31:25;;;;;;;17.70;3.63;;;7.00;99.90;;;;;;5072629;28;20059;-82
2023/01/31 10:34:12;;;;;;;21.65;3.78;;;7.00;99.90;;;;;;5075908;28;20115;-83
2023/01/31 10:37:04;;;;;;;20.98;3.65;;;7.00;99.90;;;;;;5072790;28;20095;-83
2023/01/31 10:39:42;;;;;;;19.48;3.50;;;7.00;99.90;;;;;;5071746;28;20052;-83
2023/01/31 10:42:20;;;;;;;21.25;4.15;;;7.00;99.90;;;;;;5089272;28;20047;-83
2023/01/31 10:44:49;;;;;;;15.65;3.65;;;7.10;99.90;;;;;;5086528;28;20036;-84
2023/01/31 10:47:17;;;;;;;14.02;3.67;;;6.90;99.90;;;;;;5090597;28;20047;-83
2023/01/31 10:49:47;;;;;;;14.82;3.22;;;6.90;99.90;;;;;;5072455;28;20516;-83
2023/01/31 10:52:31;;;;;;;19.83;3.70;;;6.90;99.90;;;;;;5090255;28;20063;-83
2023/01/31 10:55:17;;;;;;;16.95;3.50;;;6.90;99.90;;;;;;5088800;28;20044;-82
2023/01/31 10:57:43;;;;;;;12.77;3.13;;;6.90;99.90;;;;;;5073872;28;20100;-83
2023/01/31 11:00:26;;;;;;;15.18;3.15;;;6.90;99.90;;;;;;5073880;28;20508;-82
2023/01/31 11:02:52;;;;;;;15.20;3.28;;;6.90;99.90;;;;;;5074158;28;20497;-83
2023/01/31 11:05:21;;;;;;;20.25;4.03;;;6.90;99.90;;;;;;5073140;28;20043;-83
2023/01/31 11:07:47;;;;;;;15.65;3.45;;;6.90;99.90;;;;;;5072817;28;20048;-82
2023/01/31 11:10:49;;;;;;;17.45;3.92;;;6.90;99.90;;;;;;5088952;28;20102;-83
2023/01/31 11:13:18;;;;;;;16.10;3.70;;;6.90;99.90;;;;;;5088452;28;20048;-83
2023/01/31 11:15:44;;;;;;;19.08;3.72;;;7.00;99.90;;;;;;5088310;28;20043;-83
2023/01/31 11:18:42;;;;;;;15.60;3.28;;;7.00;99.90;;;;;;5071437;28;20104;-83
2023/01/31 11:21:09;;;;;;;20.38;4.20;;;7.00;99.90;;;;;;5071446;28;20048;-83
2023/01/31 11:23:36;;;;;;;19.40;3.30;;;7.00;99.90;;;;;;5071684;28;20044;-82
2023/01/31 11:26:02;;;;;;;20.10;3.70;;;7.00;99.90;;;;;;5088816;28;20047;-83
2023/01/31 11:28:39;;;;;;;13.95;3.38;;;5.50;99.90;;;;;;5086981;28;20048;-83
2023/01/31 11:31:24;;;;;;;15.50;3.70;;;7.00;99.90;;;;;;5088138;28;20044;-83
2023/01/31 11:34:01;;;;;;;17.23;3.60;;;7.00;99.90;;;;;;5088449;28;20048;-83
2023/01/31 11:36:32;;;;;;;16.55;3.50;;;6.20;99.90;;;;;;5071501;28;20072;-83
2023/01/31 11:38:58;;;;;;;18.85;3.92;;;7.00;99.90;;;;;;5089674;28;20086;-83
2023/01/31 11:41:31;;;;;;;21.10;3.70;;;7.00;99.90;;;;;;5092593;28;20397;-83
2023/01/31 11:44:14;;;;;;;15.80;3.38;;;7.40;99.90;;;;;;5092722;28;20067;-83
2023/01/31 11:46:55;;;;;;;15.35;3.58;;;7.10;99.90;;;;;;5076147;28;20043;-83
2023/01/31 11:49:38;;;;;;;19.08;3.75;;;7.00;99.90;;;;;;5074647;28;20490;-82
2023/01/31 11:52:17;;;;;;;19.92;3.22;;;7.10;99.90;;;;;;5092377;28;20055;-83
2023/01/31 11:54:53;;;;;;;19.08;3.90;;;7.10;99.90;;;;;;5092515;28;20036;-83
2023/01/31 11:57:33;;;;;;;18.27;3.60;;;7.30;99.90;;;;;;5092254;28;20378;-83
2023/01/31 12:00:01;;;;;;;19.10;4.35;;;7.30;99.90;;;;;;5091131;28;20058;-83
2023/01/31 12:02:40;;;;;;;20.85;4.25;;;7.40;99.90;;;;;;5092428;28;20094;-82
2023/01/31 12:05:15;;;;;;;15.55;4.10;;;7.40;99.90;;;;;;5075527;28;20040;-83
2023/01/31 12:07:48;;;;;;;22.58;4.80;;;7.40;99.90;;;;;;5075225;28;20043;-83
2023/01/31 12:10:32;;;;;;;21.02;3.70;;;7.40;99.90;;;;;;5073952;28;20040;-82
2023/01/31 12:13:11;;;;;;;17.95;3.88;;;7.20;99.90;;;;;;5091747;28;20152;-83
2023/01/31 12:15:50;;;;;;;22.77;4.68;;;7.50;99.90;;;;;;5091278;28;20044;-83
2023/01/31 12:18:42;;;;;;;21.50;4.47;;;7.50;99.90;;;;;;5092025;28;20093;-83
2023/01/31 12:21:25;;;;;;;20.90;4.57;;;7.50;99.90;;;;;;5073697;28;20044;-83
2023/01/31 12:24:14;;;;;;;20.42;3.95;;;7.60;99.90;;;;;;5091863;28;20032;-83
2023/01/31 12:26:46;;;;;;;21.92;4.25;;;7.60;99.90;;;;;;5080939;28;20044;-83
2023/01/31 12:29:43;;;;;;;17.70;3.95;;;7.70;99.90;;;;;;5088353;28;20043;-82
2023/01/31 12:32:56;;;;;;;18.17;3.80;;;7.70;99.90;;;;;;5086672;28;20044;-85
2023/01/31 12:35:36;;;;;;;23.48;4.28;;;7.80;99.90;;;;;;5030179;28;20462;-83
2023/01/31 12:38:20;;;;;;;17.95;4.25;;;7.80;99.90;;;;;;5013212;28;20038;-82
2023/01/31 12:40:54;;;;;;;23.05;4.28;;;7.90;99.90;;;;;;5057935;28;20173;-83
2023/01/31 12:43:38;;;;;;;19.80;3.47;;;7.90;99.90;;;;;;5087625;28;20500;-83
2023/01/31 12:46:10;;;;;;;17.75;3.95;;;8.00;99.90;;;;;;5087671;28;20304;-83
2023/01/31 12:48:50;;;;;;;17.47;4.07;;;8.00;99.90;;;;;;5091004;28;20533;-83
2023/01/31 12:51:25;;;;;;;19.08;3.78;;;8.00;99.90;;;;;;5074081;28;20806;-83
2023/01/31 12:54:01;;;;;;;14.45;3.08;;;8.00;99.90;;;;;;5092215;28;20093;-83
2023/01/31 12:56:48;;;;;;;17.55;3.63;;;8.00;99.90;;;;;;5093096;28;20451;-84
2023/01/31 12:59:38;;;;;;;17.75;3.58;;;8.00;99.90;;;;;;5092142;28;20047;-83
2023/01/31 13:02:07;;;;;;;15.30;3.42;;;8.00;99.90;;;;;;5092444;28;20078;-83
2023/01/31 13:04:44;;;;;;;18.95;3.70;;;8.00;99.90;;;;;;5091211;28;20129;-83
2023/01/31 13:07:24;;;;;;;15.60;3.55;;;8.00;99.90;;;;;;5075422;28;20044;-84
2023/01/31 13:09:52;;;;;;;14.50;3.92;;;8.00;99.90;;;;;;5094014;28;20036;-83
2023/01/31 13:12:24;;;;;;;15.02;3.28;;;8.00;99.90;;;;;;5093572;28;20150;-83
2023/01/31 13:15:02;;;;;;;18.55;3.50;;;8.10;99.90;;;;;;5091766;28;20040;-83
2023/01/31 13:17:30;;;;;;;17.27;3.83;;;8.10;99.90;;;;;;5091046;28;20051;-82
2023/01/31 13:20:25;;;;;;;16.80;3.88;;;8.10;99.90;;;;;;5075247;28;20039;-84